HKS45 ENBN-ENTC
Flight info
| Callsign | HKS45 |
|---|---|
| Flight time | 2h 15m |
| Altitude | 7000 |
| Route | PEPIB2B DCT BARVI BARVI2L |
| Aircraft | S76/M-V/N |
Departure
| Time | 2026-05-04 18:48 |
|---|---|
| Airport | Brønnøysund Airport, Brønnøy (ENBN) |
Arrival
| Time | 2026-05-04 21:04 |
|---|---|
| Airport | Tromsø Airport (ENTC) |
| Time | Latitude | Longitude | Altitude | Speed | Heading |
|---|---|---|---|---|---|
| 2026-05-04 18:25 | 65.46064 | 12.21192 | 21 ft | 0 kts | 307° |
| 2026-05-04 18:41 | 65.46063 | 12.21192 | 21 ft | 0 kts | 295° |
| 2026-05-04 18:42 | 65.46062 | 12.21192 | 21 ft | 0 kts | 244° |
| 2026-05-04 18:42 | 65.46056 | 12.21180 | 21 ft | 5 kts | 209° |
| 2026-05-04 18:42 | 65.46023 | 12.21177 | 21 ft | 4 kts | 182° |
| 2026-05-04 18:43 | 65.46001 | 12.21157 | 21 ft | 3 kts | 212° |
| 2026-05-04 18:43 | 65.45985 | 12.21137 | 22 ft | 4 kts | 199° |
| 2026-05-04 18:43 | 65.45966 | 12.21140 | 23 ft | 2 kts | 154° |
| 2026-05-04 18:43 | 65.45955 | 12.21190 | 24 ft | 6 kts | 84° |
| 2026-05-04 18:44 | 65.45992 | 12.21281 | 23 ft | 7 kts | 37° |
| 2026-05-04 18:44 | 65.46003 | 12.21301 | 24 ft | 5 kts | 38° |
| 2026-05-04 18:44 | 65.46012 | 12.21364 | 24 ft | 5 kts | 165° |
| 2026-05-04 18:44 | 65.46005 | 12.21402 | 26 ft | 1 kts | 114° |
| 2026-05-04 18:46 | 65.46003 | 12.21409 | 25 ft | 3 kts | 114° |
| 2026-05-04 18:47 | 65.45992 | 12.21459 | 25 ft | 4 kts | 116° |
| 2026-05-04 18:47 | 65.45991 | 12.21510 | 23 ft | 1 kts | 55° |
| 2026-05-04 18:47 | 65.45995 | 12.21517 | 34 ft | 4 kts | 51° |
| 2026-05-04 18:47 | 65.46142 | 12.21837 | 73 ft | 54 kts | 35° |
| 2026-05-04 18:48 | 65.46453 | 12.22491 | 286 ft | 66 kts | 41° |
| 2026-05-04 18:48 | 65.46810 | 12.23300 | 491 ft | 72 kts | 32° |
| 2026-05-04 18:48 | 65.47273 | 12.23716 | 763 ft | 70 kts | 2° |
| 2026-05-04 18:48 | 65.47589 | 12.23635 | 963 ft | 70 kts | 346° |
| 2026-05-04 18:49 | 65.48076 | 12.23277 | 1196 ft | 73 kts | 341° |
| 2026-05-04 18:49 | 65.48578 | 12.22912 | 1413 ft | 77 kts | 343° |
| 2026-05-04 18:49 | 65.49043 | 12.22634 | 1846 ft | 50 kts | 346° |
| 2026-05-04 18:49 | 65.49384 | 12.22475 | 2100 ft | 64 kts | 346° |
| 2026-05-04 18:50 | 65.49695 | 12.22310 | 2553 ft | 28 kts | 347° |
| 2026-05-04 18:50 | 65.49919 | 12.22292 | 2793 ft | 38 kts | 341° |
| 2026-05-04 18:50 | 65.50244 | 12.22172 | 2974 ft | 56 kts | 340° |
| 2026-05-04 18:50 | 65.50680 | 12.21992 | 3125 ft | 70 kts | 341° |
| 2026-05-04 18:51 | 65.51200 | 12.21760 | 3274 ft | 81 kts | 339° |
| 2026-05-04 18:51 | 65.51780 | 12.21509 | 3404 ft | 88 kts | 340° |
| 2026-05-04 18:51 | 65.52398 | 12.21242 | 3536 ft | 93 kts | 340° |
| 2026-05-04 18:51 | 65.53047 | 12.20955 | 3655 ft | 96 kts | 340° |
| 2026-05-04 18:52 | 65.53713 | 12.20650 | 3770 ft | 99 kts | 340° |
| 2026-05-04 18:52 | 65.54394 | 12.20329 | 3895 ft | 101 kts | 340° |
| 2026-05-04 18:52 | 65.55086 | 12.20004 | 4012 ft | 102 kts | 340° |
| 2026-05-04 18:52 | 65.55777 | 12.19600 | 4126 ft | 102 kts | 338° |
| 2026-05-04 18:53 | 65.56473 | 12.19241 | 4229 ft | 102 kts | 341° |
| 2026-05-04 18:53 | 65.57175 | 12.18979 | 4343 ft | 102 kts | 344° |
| 2026-05-04 18:53 | 65.57884 | 12.18822 | 4451 ft | 103 kts | 347° |
| 2026-05-04 18:53 | 65.58598 | 12.18753 | 4556 ft | 103 kts | 349° |
| 2026-05-04 18:54 | 65.59312 | 12.18762 | 4661 ft | 103 kts | 351° |
| 2026-05-04 18:54 | 65.60026 | 12.18845 | 4763 ft | 103 kts | 354° |
| 2026-05-04 18:54 | 65.60739 | 12.18995 | 4867 ft | 103 kts | 355° |
| 2026-05-04 18:54 | 65.61446 | 12.19205 | 4969 ft | 102 kts | 357° |
| 2026-05-04 18:55 | 65.62149 | 12.19471 | 5070 ft | 102 kts | 359° |
| 2026-05-04 18:55 | 65.63541 | 12.20148 | 5272 ft | 102 kts | 1° |
| 2026-05-04 18:55 | 65.64226 | 12.20546 | 5373 ft | 101 kts | 2° |
| 2026-05-04 18:56 | 65.64905 | 12.20980 | 5473 ft | 101 kts | 3° |
| 2026-05-04 18:56 | 65.65580 | 12.21444 | 5577 ft | 101 kts | 4° |
| 2026-05-04 18:56 | 65.66250 | 12.21939 | 5680 ft | 101 kts | 5° |
| 2026-05-04 18:56 | 65.66921 | 12.22462 | 5783 ft | 101 kts | 5° |
| 2026-05-04 18:57 | 65.67584 | 12.23009 | 5889 ft | 101 kts | 6° |
| 2026-05-04 18:57 | 65.68245 | 12.23577 | 5986 ft | 100 kts | 7° |
| 2026-05-04 18:57 | 65.68897 | 12.24159 | 6081 ft | 100 kts | 7° |
| 2026-05-04 18:57 | 65.69544 | 12.24759 | 6177 ft | 99 kts | 8° |
| 2026-05-04 18:58 | 65.70187 | 12.25373 | 6272 ft | 99 kts | 8° |
| 2026-05-04 18:58 | 65.70826 | 12.25999 | 6368 ft | 99 kts | 9° |
| 2026-05-04 18:58 | 65.71465 | 12.26640 | 6464 ft | 99 kts | 9° |
| 2026-05-04 18:58 | 65.72093 | 12.27284 | 6558 ft | 99 kts | 9° |
| 2026-05-04 18:59 | 65.72727 | 12.27946 | 6653 ft | 99 kts | 9° |
| 2026-05-04 18:59 | 65.73356 | 12.28615 | 6750 ft | 99 kts | 9° |
| 2026-05-04 18:59 | 65.73982 | 12.29292 | 6832 ft | 99 kts | 9° |
| 2026-05-04 18:59 | 65.74625 | 12.29993 | 6889 ft | 105 kts | 11° |
| 2026-05-04 19:00 | 65.75303 | 12.30739 | 6892 ft | 109 kts | 12° |
| 2026-05-04 19:00 | 65.76005 | 12.31523 | 6897 ft | 113 kts | 12° |
| 2026-05-04 19:00 | 65.76727 | 12.32341 | 6893 ft | 116 kts | 13° |
| 2026-05-04 19:00 | 65.77461 | 12.33183 | 6887 ft | 117 kts | 13° |
| 2026-05-04 19:01 | 65.78201 | 12.34044 | 6884 ft | 119 kts | 14° |
| 2026-05-04 19:01 | 65.78949 | 12.34924 | 6883 ft | 120 kts | 14° |
| 2026-05-04 19:01 | 65.79699 | 12.35813 | 6882 ft | 120 kts | 15° |
| 2026-05-04 19:01 | 65.80450 | 12.36710 | 6881 ft | 120 kts | 15° |
| 2026-05-04 19:02 | 65.81202 | 12.37615 | 6881 ft | 121 kts | 15° |
| 2026-05-04 19:02 | 65.81955 | 12.38532 | 6883 ft | 121 kts | 15° |
| 2026-05-04 19:02 | 65.82708 | 12.39451 | 6883 ft | 121 kts | 15° |
| 2026-05-04 19:02 | 65.83465 | 12.40379 | 6883 ft | 122 kts | 16° |
| 2026-05-04 19:03 | 65.84221 | 12.41311 | 6885 ft | 122 kts | 16° |
| 2026-05-04 19:03 | 65.84980 | 12.42249 | 6885 ft | 122 kts | 16° |
| 2026-05-04 19:03 | 65.85739 | 12.43190 | 6885 ft | 122 kts | 16° |
| 2026-05-04 19:03 | 65.86499 | 12.44136 | 6885 ft | 123 kts | 16° |
| 2026-05-04 19:04 | 65.87217 | 12.45037 | 6887 ft | 123 kts | 16° |
| 2026-05-04 19:04 | 65.87977 | 12.45985 | 6886 ft | 123 kts | 16° |
| 2026-05-04 19:04 | 65.88736 | 12.46938 | 6885 ft | 122 kts | 16° |
| 2026-05-04 19:04 | 65.89494 | 12.47890 | 6885 ft | 122 kts | 17° |
| 2026-05-04 19:05 | 65.90250 | 12.48846 | 6882 ft | 122 kts | 17° |
| 2026-05-04 19:05 | 65.90995 | 12.49791 | 6860 ft | 120 kts | 16° |
| 2026-05-04 19:05 | 65.91739 | 12.50731 | 6872 ft | 120 kts | 16° |
| 2026-05-04 19:05 | 65.92471 | 12.51662 | 6882 ft | 121 kts | 16° |
| 2026-05-04 19:06 | 65.93227 | 12.52616 | 6892 ft | 123 kts | 16° |
| 2026-05-04 19:06 | 65.94003 | 12.53596 | 6907 ft | 127 kts | 17° |
| 2026-05-04 19:06 | 65.94800 | 12.54605 | 6912 ft | 130 kts | 17° |
| 2026-05-04 19:06 | 65.95608 | 12.55631 | 6912 ft | 132 kts | 18° |
| 2026-05-04 19:07 | 65.96424 | 12.56671 | 6906 ft | 132 kts | 18° |
| 2026-05-04 19:07 | 65.97240 | 12.57713 | 6900 ft | 132 kts | 18° |
| 2026-05-04 19:07 | 65.98051 | 12.58749 | 6895 ft | 131 kts | 18° |
| 2026-05-04 19:07 | 65.98810 | 12.59722 | 6887 ft | 129 kts | 18° |
| 2026-05-04 19:08 | 65.99607 | 12.60748 | 6885 ft | 127 kts | 17° |
| 2026-05-04 19:08 | 66.00388 | 12.61751 | 6884 ft | 126 kts | 17° |
| 2026-05-04 19:08 | 66.01169 | 12.62748 | 6887 ft | 126 kts | 17° |
| 2026-05-04 19:08 | 66.01948 | 12.63747 | 6889 ft | 126 kts | 17° |
| 2026-05-04 19:09 | 66.02724 | 12.64745 | 6888 ft | 126 kts | 17° |
| 2026-05-04 19:09 | 66.03496 | 12.65740 | 6886 ft | 125 kts | 17° |
| 2026-05-04 19:09 | 66.04265 | 12.66732 | 6886 ft | 125 kts | 17° |
| 2026-05-04 19:09 | 66.05035 | 12.67727 | 6888 ft | 125 kts | 17° |
| 2026-05-04 19:10 | 66.05813 | 12.68730 | 6889 ft | 126 kts | 17° |
| 2026-05-04 19:10 | 66.06589 | 12.69728 | 6885 ft | 126 kts | 17° |
| 2026-05-04 19:10 | 66.07367 | 12.70735 | 6891 ft | 127 kts | 17° |
| 2026-05-04 19:10 | 66.08159 | 12.71755 | 6898 ft | 130 kts | 17° |
| 2026-05-04 19:11 | 66.08961 | 12.72789 | 6899 ft | 131 kts | 17° |
| 2026-05-04 19:11 | 66.09767 | 12.73833 | 6881 ft | 131 kts | 17° |
| 2026-05-04 19:11 | 66.10573 | 12.74878 | 6876 ft | 131 kts | 17° |
| 2026-05-04 19:11 | 66.11368 | 12.75909 | 6876 ft | 131 kts | 17° |
| 2026-05-04 19:12 | 66.12174 | 12.76954 | 6877 ft | 131 kts | 17° |
| 2026-05-04 19:12 | 66.13777 | 12.79035 | 6873 ft | 130 kts | 17° |
| 2026-05-04 19:12 | 66.14575 | 12.80073 | 6873 ft | 130 kts | 17° |
| 2026-05-04 19:13 | 66.15372 | 12.81109 | 6873 ft | 129 kts | 17° |
| 2026-05-04 19:13 | 66.16163 | 12.82135 | 6874 ft | 128 kts | 17° |
| 2026-05-04 19:13 | 66.16952 | 12.83162 | 6875 ft | 129 kts | 17° |
| 2026-05-04 19:13 | 66.17745 | 12.84196 | 6875 ft | 129 kts | 17° |
| 2026-05-04 19:14 | 66.18537 | 12.85228 | 6872 ft | 129 kts | 17° |
| 2026-05-04 19:14 | 66.19330 | 12.86263 | 6871 ft | 129 kts | 17° |
| 2026-05-04 19:14 | 66.20119 | 12.87296 | 6874 ft | 128 kts | 17° |
| 2026-05-04 19:14 | 66.20909 | 12.88329 | 6877 ft | 128 kts | 17° |
| 2026-05-04 19:15 | 66.21698 | 12.89360 | 6878 ft | 128 kts | 17° |
| 2026-05-04 19:15 | 66.22487 | 12.90391 | 6878 ft | 128 kts | 17° |
| 2026-05-04 19:15 | 66.23274 | 12.91423 | 6881 ft | 128 kts | 17° |
| 2026-05-04 19:15 | 66.24061 | 12.92456 | 6883 ft | 128 kts | 17° |
| 2026-05-04 19:16 | 66.24849 | 12.93488 | 6879 ft | 128 kts | 17° |
| 2026-05-04 19:16 | 66.25639 | 12.94524 | 6879 ft | 128 kts | 17° |
| 2026-05-04 19:16 | 66.26426 | 12.95559 | 6878 ft | 128 kts | 17° |
| 2026-05-04 19:16 | 66.27214 | 12.96593 | 6878 ft | 128 kts | 17° |
| 2026-05-04 19:17 | 66.28000 | 12.97627 | 6883 ft | 128 kts | 17° |
| 2026-05-04 19:17 | 66.28785 | 12.98662 | 6880 ft | 128 kts | 17° |
| 2026-05-04 19:17 | 66.29570 | 12.99696 | 6880 ft | 128 kts | 17° |
| 2026-05-04 19:17 | 66.30356 | 13.00735 | 6881 ft | 128 kts | 17° |
| 2026-05-04 19:18 | 66.31146 | 13.01778 | 6883 ft | 129 kts | 17° |
| 2026-05-04 19:18 | 66.31937 | 13.02823 | 6883 ft | 129 kts | 17° |
| 2026-05-04 19:18 | 66.32729 | 13.03871 | 6883 ft | 129 kts | 17° |
| 2026-05-04 19:18 | 66.33528 | 13.04927 | 6886 ft | 130 kts | 18° |
| 2026-05-04 19:19 | 66.34333 | 13.05989 | 6885 ft | 131 kts | 18° |
| 2026-05-04 19:19 | 66.35142 | 13.07059 | 6896 ft | 133 kts | 17° |
| 2026-05-04 19:19 | 66.35962 | 13.08144 | 6891 ft | 134 kts | 17° |
| 2026-05-04 19:19 | 66.36785 | 13.09236 | 6887 ft | 134 kts | 18° |
| 2026-05-04 19:20 | 66.37548 | 13.10247 | 6894 ft | 136 kts | 18° |
| 2026-05-04 19:20 | 66.38410 | 13.11392 | 6893 ft | 136 kts | 18° |
| 2026-05-04 19:20 | 66.39246 | 13.12501 | 6890 ft | 136 kts | 17° |
| 2026-05-04 19:20 | 66.40079 | 13.13609 | 6886 ft | 136 kts | 18° |
| 2026-05-04 19:21 | 66.40909 | 13.14715 | 6884 ft | 135 kts | 18° |
| 2026-05-04 19:21 | 66.41735 | 13.15819 | 6884 ft | 135 kts | 18° |
| 2026-05-04 19:21 | 66.42564 | 13.16923 | 6890 ft | 133 kts | 18° |
| 2026-05-04 19:21 | 66.43395 | 13.18036 | 6859 ft | 136 kts | 18° |
| 2026-05-04 19:22 | 66.44242 | 13.19161 | 6885 ft | 139 kts | 18° |
| 2026-05-04 19:22 | 66.45094 | 13.20299 | 6889 ft | 139 kts | 18° |
| 2026-05-04 19:22 | 66.45938 | 13.21431 | 6881 ft | 137 kts | 18° |
| 2026-05-04 19:22 | 66.46758 | 13.22533 | 6867 ft | 134 kts | 18° |
| 2026-05-04 19:23 | 66.47568 | 13.23623 | 6852 ft | 130 kts | 18° |
| 2026-05-04 19:23 | 66.48357 | 13.24688 | 6861 ft | 129 kts | 18° |
| 2026-05-04 19:23 | 66.49148 | 13.25749 | 6871 ft | 130 kts | 18° |
| 2026-05-04 19:23 | 66.49946 | 13.26819 | 6876 ft | 130 kts | 18° |
| 2026-05-04 19:24 | 66.50746 | 13.27893 | 6878 ft | 131 kts | 17° |
| 2026-05-04 19:24 | 66.51548 | 13.28969 | 6879 ft | 131 kts | 17° |
| 2026-05-04 19:24 | 66.52351 | 13.30047 | 6883 ft | 132 kts | 17° |
| 2026-05-04 19:24 | 66.53164 | 13.31140 | 6889 ft | 133 kts | 17° |
| 2026-05-04 19:25 | 66.53982 | 13.32240 | 6899 ft | 133 kts | 16° |
| 2026-05-04 19:25 | 66.54792 | 13.33334 | 6891 ft | 132 kts | 17° |
| 2026-05-04 19:25 | 66.55598 | 13.34424 | 6885 ft | 131 kts | 17° |
| 2026-05-04 19:25 | 66.56399 | 13.35504 | 6880 ft | 130 kts | 17° |
| 2026-05-04 19:26 | 66.57194 | 13.36579 | 6877 ft | 129 kts | 17° |
| 2026-05-04 19:26 | 66.57989 | 13.37654 | 6885 ft | 131 kts | 17° |
| 2026-05-04 19:26 | 66.58793 | 13.38739 | 6884 ft | 131 kts | 17° |
| 2026-05-04 19:26 | 66.59600 | 13.39831 | 6888 ft | 132 kts | 17° |
| 2026-05-04 19:27 | 66.60416 | 13.40933 | 6892 ft | 134 kts | 17° |
| 2026-05-04 19:27 | 66.61228 | 13.42036 | 6880 ft | 131 kts | 17° |
| 2026-05-04 19:27 | 66.62033 | 13.43132 | 6877 ft | 131 kts | 17° |
| 2026-05-04 19:27 | 66.62830 | 13.44218 | 6878 ft | 130 kts | 17° |
| 2026-05-04 19:28 | 66.63636 | 13.45312 | 6887 ft | 132 kts | 17° |
| 2026-05-04 19:28 | 66.64448 | 13.46414 | 6888 ft | 133 kts | 17° |
| 2026-05-04 19:28 | 66.65258 | 13.47516 | 6872 ft | 132 kts | 18° |
| 2026-05-04 19:28 | 66.66075 | 13.48632 | 6888 ft | 135 kts | 17° |
| 2026-05-04 19:29 | 66.66899 | 13.49753 | 6885 ft | 135 kts | 17° |
| 2026-05-04 19:29 | 66.67721 | 13.50875 | 6883 ft | 135 kts | 17° |
| 2026-05-04 19:29 | 66.68544 | 13.52001 | 6884 ft | 135 kts | 18° |
| 2026-05-04 19:29 | 66.69375 | 13.53136 | 6884 ft | 136 kts | 17° |
| 2026-05-04 19:30 | 66.70206 | 13.54271 | 6880 ft | 136 kts | 17° |
| 2026-05-04 19:30 | 66.71035 | 13.55403 | 6879 ft | 135 kts | 17° |
| 2026-05-04 19:30 | 66.71859 | 13.56533 | 6878 ft | 135 kts | 17° |
| 2026-05-04 19:30 | 66.72684 | 13.57663 | 6883 ft | 135 kts | 17° |
| 2026-05-04 19:31 | 66.73513 | 13.58799 | 6883 ft | 136 kts | 17° |
| 2026-05-04 19:31 | 66.74344 | 13.59943 | 6884 ft | 137 kts | 17° |
| 2026-05-04 19:31 | 66.75180 | 13.61091 | 6882 ft | 137 kts | 18° |
| 2026-05-04 19:31 | 66.76014 | 13.62237 | 6881 ft | 137 kts | 17° |
| 2026-05-04 19:32 | 66.76850 | 13.63388 | 6883 ft | 136 kts | 18° |
| 2026-05-04 19:32 | 66.77682 | 13.64534 | 6882 ft | 136 kts | 18° |
| 2026-05-04 19:32 | 66.78511 | 13.65682 | 6860 ft | 135 kts | 18° |
| 2026-05-04 19:32 | 66.79328 | 13.66817 | 6872 ft | 134 kts | 18° |
| 2026-05-04 19:33 | 66.80157 | 13.67953 | 6874 ft | 136 kts | 17° |
| 2026-05-04 19:33 | 66.80992 | 13.69098 | 6883 ft | 138 kts | 17° |
| 2026-05-04 19:33 | 66.81834 | 13.70257 | 6880 ft | 137 kts | 18° |
| 2026-05-04 19:33 | 66.82670 | 13.71415 | 6869 ft | 137 kts | 18° |
| 2026-05-04 19:34 | 66.83504 | 13.72571 | 6869 ft | 136 kts | 18° |
| 2026-05-04 19:34 | 66.84334 | 13.73725 | 6866 ft | 136 kts | 18° |
| 2026-05-04 19:34 | 66.85150 | 13.74857 | 6854 ft | 135 kts | 18° |
| 2026-05-04 19:34 | 66.85973 | 13.76002 | 6868 ft | 136 kts | 17° |
| 2026-05-04 19:35 | 66.86534 | 13.76780 | 6870 ft | 136 kts | 17° |
| 2026-05-04 19:35 | 66.87626 | 13.78299 | 6852 ft | 134 kts | 17° |
| 2026-05-04 19:35 | 66.88440 | 13.79434 | 6851 ft | 133 kts | 18° |
| 2026-05-04 19:35 | 66.89239 | 13.80556 | 6857 ft | 131 kts | 17° |
| 2026-05-04 19:36 | 66.90040 | 13.81670 | 6859 ft | 131 kts | 18° |
| 2026-05-04 19:36 | 66.90591 | 13.82436 | 6873 ft | 134 kts | 17° |
| 2026-05-04 19:36 | 66.91417 | 13.83580 | 6871 ft | 135 kts | 18° |
| 2026-05-04 19:36 | 66.92232 | 13.84719 | 6846 ft | 132 kts | 17° |
| 2026-05-04 19:37 | 66.93024 | 13.85833 | 6839 ft | 128 kts | 18° |
| 2026-05-04 19:37 | 66.93782 | 13.86902 | 6836 ft | 126 kts | 16° |
| 2026-05-04 19:37 | 66.94561 | 13.87989 | 6841 ft | 127 kts | 17° |
| 2026-05-04 19:37 | 66.95326 | 13.89057 | 6844 ft | 128 kts | 18° |
| 2026-05-04 19:38 | 66.96111 | 13.90154 | 6849 ft | 129 kts | 17° |
| 2026-05-04 19:38 | 66.96902 | 13.91261 | 6857 ft | 131 kts | 18° |
| 2026-05-04 19:38 | 66.97711 | 13.92392 | 6863 ft | 134 kts | 18° |
| 2026-05-04 19:38 | 66.98531 | 13.93539 | 6869 ft | 135 kts | 19° |
| 2026-05-04 19:39 | 66.99353 | 13.94695 | 6860 ft | 135 kts | 18° |
| 2026-05-04 19:39 | 67.00176 | 13.95851 | 6866 ft | 135 kts | 18° |
| 2026-05-04 19:39 | 67.00996 | 13.97003 | 6889 ft | 135 kts | 18° |
| 2026-05-04 19:39 | 67.01818 | 13.98158 | 6903 ft | 135 kts | 18° |
| 2026-05-04 19:40 | 67.02649 | 13.99329 | 6915 ft | 137 kts | 18° |
| 2026-05-04 19:40 | 67.03485 | 14.00505 | 6918 ft | 138 kts | 18° |
| 2026-05-04 19:40 | 67.04325 | 14.01687 | 6918 ft | 138 kts | 19° |
| 2026-05-04 19:40 | 67.05170 | 14.02881 | 6920 ft | 139 kts | 19° |
| 2026-05-04 19:41 | 67.06019 | 14.04082 | 6913 ft | 139 kts | 19° |
| 2026-05-04 19:41 | 67.06871 | 14.05285 | 6918 ft | 140 kts | 19° |
| 2026-05-04 19:41 | 67.07728 | 14.06497 | 6908 ft | 140 kts | 19° |
| 2026-05-04 19:41 | 67.08581 | 14.07709 | 6910 ft | 141 kts | 19° |
| 2026-05-04 19:42 | 67.09443 | 14.08931 | 6918 ft | 143 kts | 19° |
| 2026-05-04 19:42 | 67.10313 | 14.10167 | 6913 ft | 143 kts | 19° |
| 2026-05-04 19:42 | 67.11179 | 14.11402 | 6908 ft | 142 kts | 20° |
| 2026-05-04 19:42 | 67.12038 | 14.12625 | 6897 ft | 140 kts | 19° |
| 2026-05-04 19:43 | 67.12883 | 14.13832 | 6894 ft | 139 kts | 19° |
| 2026-05-04 19:43 | 67.13726 | 14.15037 | 6898 ft | 139 kts | 19° |
| 2026-05-04 19:43 | 67.14570 | 14.16241 | 6901 ft | 139 kts | 19° |
| 2026-05-04 19:43 | 67.15419 | 14.17453 | 6903 ft | 139 kts | 19° |
| 2026-05-04 19:44 | 67.16267 | 14.18666 | 6902 ft | 140 kts | 19° |
| 2026-05-04 19:44 | 67.17115 | 14.19875 | 6901 ft | 140 kts | 19° |
| 2026-05-04 19:44 | 67.17966 | 14.21092 | 6902 ft | 140 kts | 19° |
| 2026-05-04 19:44 | 67.18815 | 14.22310 | 6902 ft | 140 kts | 19° |
| 2026-05-04 19:45 | 67.19665 | 14.23527 | 6904 ft | 140 kts | 19° |
| 2026-05-04 19:45 | 67.20518 | 14.24740 | 6903 ft | 140 kts | 19° |
| 2026-05-04 19:45 | 67.21366 | 14.25953 | 6902 ft | 140 kts | 19° |
| 2026-05-04 19:45 | 67.22217 | 14.27170 | 6902 ft | 140 kts | 19° |
| 2026-05-04 19:46 | 67.23067 | 14.28387 | 6901 ft | 140 kts | 19° |
| 2026-05-04 19:46 | 67.23915 | 14.29609 | 6902 ft | 140 kts | 19° |
| 2026-05-04 19:46 | 67.24766 | 14.30838 | 6902 ft | 140 kts | 19° |
| 2026-05-04 19:46 | 67.25617 | 14.32066 | 6902 ft | 140 kts | 19° |
| 2026-05-04 19:47 | 67.26467 | 14.33296 | 6905 ft | 140 kts | 19° |
| 2026-05-04 19:47 | 67.27318 | 14.34529 | 6904 ft | 140 kts | 19° |
| 2026-05-04 19:47 | 67.28171 | 14.35761 | 6904 ft | 140 kts | 19° |
| 2026-05-04 19:47 | 67.29023 | 14.36993 | 6903 ft | 140 kts | 19° |
| 2026-05-04 19:48 | 67.29877 | 14.38229 | 6903 ft | 140 kts | 19° |
| 2026-05-04 19:48 | 67.30730 | 14.39468 | 6907 ft | 141 kts | 20° |
| 2026-05-04 19:48 | 67.31590 | 14.40713 | 6907 ft | 142 kts | 19° |
| 2026-05-04 19:48 | 67.32449 | 14.41961 | 6905 ft | 141 kts | 20° |
| 2026-05-04 19:49 | 67.33306 | 14.43207 | 6902 ft | 141 kts | 20° |
| 2026-05-04 19:49 | 67.34162 | 14.44453 | 6903 ft | 141 kts | 20° |
| 2026-05-04 19:49 | 67.35017 | 14.45698 | 6903 ft | 141 kts | 20° |
| 2026-05-04 19:49 | 67.35873 | 14.46944 | 6904 ft | 141 kts | 20° |
| 2026-05-04 19:50 | 67.36730 | 14.48192 | 6905 ft | 141 kts | 20° |
| 2026-05-04 19:50 | 67.37585 | 14.49442 | 6905 ft | 141 kts | 20° |
| 2026-05-04 19:50 | 67.38439 | 14.50690 | 6904 ft | 141 kts | 20° |
| 2026-05-04 19:50 | 67.39295 | 14.51938 | 6904 ft | 141 kts | 20° |
| 2026-05-04 19:51 | 67.40153 | 14.53192 | 6902 ft | 141 kts | 20° |
| 2026-05-04 19:51 | 67.41009 | 14.54445 | 6903 ft | 141 kts | 20° |
| 2026-05-04 19:51 | 67.41865 | 14.55697 | 6903 ft | 141 kts | 20° |
| 2026-05-04 19:51 | 67.42721 | 14.56943 | 6903 ft | 141 kts | 20° |
| 2026-05-04 19:52 | 67.43567 | 14.58182 | 6904 ft | 141 kts | 20° |
| 2026-05-04 19:52 | 67.44434 | 14.59454 | 6904 ft | 141 kts | 20° |
| 2026-05-04 19:52 | 67.45289 | 14.60711 | 6904 ft | 141 kts | 20° |
| 2026-05-04 19:52 | 67.46132 | 14.61953 | 6905 ft | 141 kts | 20° |
| 2026-05-04 19:53 | 67.46998 | 14.63229 | 6907 ft | 141 kts | 20° |
| 2026-05-04 19:53 | 67.47842 | 14.64472 | 6905 ft | 141 kts | 20° |
| 2026-05-04 19:53 | 67.48698 | 14.65735 | 6907 ft | 141 kts | 20° |
| 2026-05-04 19:53 | 67.49553 | 14.66997 | 6904 ft | 141 kts | 20° |
| 2026-05-04 19:54 | 67.50409 | 14.68261 | 6903 ft | 141 kts | 20° |
| 2026-05-04 19:54 | 67.51264 | 14.69525 | 6902 ft | 141 kts | 20° |
| 2026-05-04 19:54 | 67.52120 | 14.70791 | 6909 ft | 141 kts | 20° |
| 2026-05-04 19:54 | 67.52977 | 14.72060 | 6912 ft | 142 kts | 20° |
| 2026-05-04 19:55 | 67.53834 | 14.73330 | 6906 ft | 142 kts | 19° |
| 2026-05-04 19:55 | 67.54691 | 14.74600 | 6904 ft | 141 kts | 19° |
| 2026-05-04 19:55 | 67.55548 | 14.75871 | 6904 ft | 141 kts | 19° |
| 2026-05-04 19:55 | 67.56403 | 14.77141 | 6904 ft | 141 kts | 20° |
| 2026-05-04 19:56 | 67.57257 | 14.78410 | 6903 ft | 141 kts | 19° |
| 2026-05-04 19:56 | 67.58111 | 14.79680 | 6903 ft | 141 kts | 19° |
| 2026-05-04 19:56 | 67.58964 | 14.80951 | 6904 ft | 141 kts | 20° |
| 2026-05-04 19:56 | 67.59819 | 14.82225 | 6904 ft | 141 kts | 20° |
| 2026-05-04 19:57 | 67.60673 | 14.83498 | 6904 ft | 141 kts | 20° |
| 2026-05-04 19:57 | 67.61527 | 14.84774 | 6904 ft | 141 kts | 19° |
| 2026-05-04 19:57 | 67.62381 | 14.86046 | 6904 ft | 141 kts | 20° |
| 2026-05-04 19:57 | 67.63235 | 14.87320 | 6904 ft | 141 kts | 20° |
| 2026-05-04 19:58 | 67.64090 | 14.88599 | 6904 ft | 141 kts | 19° |
| 2026-05-04 19:58 | 67.64945 | 14.89879 | 6904 ft | 141 kts | 21° |
| 2026-05-04 19:58 | 67.65798 | 14.91159 | 6901 ft | 141 kts | 20° |
| 2026-05-04 19:58 | 67.66648 | 14.92434 | 6893 ft | 139 kts | 20° |
| 2026-05-04 19:59 | 67.67473 | 14.93720 | 6873 ft | 136 kts | 22° |
| 2026-05-04 19:59 | 67.68266 | 14.95091 | 6884 ft | 137 kts | 23° |
| 2026-05-04 19:59 | 67.69059 | 14.96471 | 6880 ft | 135 kts | 24° |
| 2026-05-04 19:59 | 67.69838 | 14.97841 | 6883 ft | 135 kts | 23° |
| 2026-05-04 20:00 | 67.70626 | 14.99219 | 6889 ft | 136 kts | 23° |
| 2026-05-04 20:00 | 67.71411 | 15.00600 | 6897 ft | 137 kts | 23° |
| 2026-05-04 20:00 | 67.72203 | 15.01999 | 6901 ft | 138 kts | 23° |
| 2026-05-04 20:00 | 67.73001 | 15.03412 | 6903 ft | 139 kts | 24° |
| 2026-05-04 20:01 | 67.73807 | 15.04840 | 6910 ft | 141 kts | 24° |
| 2026-05-04 20:01 | 67.74625 | 15.06293 | 6912 ft | 143 kts | 24° |
| 2026-05-04 20:01 | 67.75450 | 15.07761 | 6911 ft | 144 kts | 24° |
| 2026-05-04 20:01 | 67.76279 | 15.09241 | 6906 ft | 143 kts | 24° |
| 2026-05-04 20:02 | 67.77104 | 15.10718 | 6899 ft | 143 kts | 25° |
| 2026-05-04 20:02 | 67.77927 | 15.12194 | 6896 ft | 143 kts | 24° |
| 2026-05-04 20:02 | 67.78747 | 15.13669 | 6896 ft | 143 kts | 24° |
| 2026-05-04 20:02 | 67.79557 | 15.15131 | 6913 ft | 144 kts | 25° |
| 2026-05-04 20:03 | 67.80398 | 15.16646 | 6912 ft | 144 kts | 24° |
| 2026-05-04 20:03 | 67.81217 | 15.18123 | 6901 ft | 142 kts | 24° |
| 2026-05-04 20:03 | 67.82028 | 15.19591 | 6899 ft | 141 kts | 24° |
| 2026-05-04 20:03 | 67.82841 | 15.21061 | 6912 ft | 142 kts | 24° |
| 2026-05-04 20:04 | 67.83659 | 15.22542 | 6913 ft | 143 kts | 25° |
| 2026-05-04 20:04 | 67.84472 | 15.24015 | 6907 ft | 143 kts | 25° |
| 2026-05-04 20:04 | 67.85296 | 15.25514 | 6910 ft | 144 kts | 25° |
| 2026-05-04 20:04 | 67.86121 | 15.27018 | 6908 ft | 144 kts | 25° |
| 2026-05-04 20:05 | 67.86949 | 15.28523 | 6907 ft | 144 kts | 25° |
| 2026-05-04 20:05 | 67.87777 | 15.30029 | 6908 ft | 144 kts | 25° |
| 2026-05-04 20:05 | 67.88615 | 15.31554 | 6889 ft | 142 kts | 25° |
| 2026-05-04 20:05 | 67.89409 | 15.33012 | 6879 ft | 140 kts | 24° |
| 2026-05-04 20:06 | 67.90211 | 15.34480 | 6888 ft | 141 kts | 25° |
| 2026-05-04 20:06 | 67.91023 | 15.35965 | 6899 ft | 143 kts | 25° |
| 2026-05-04 20:06 | 67.91841 | 15.37460 | 6898 ft | 143 kts | 25° |
| 2026-05-04 20:06 | 67.92660 | 15.38961 | 6897 ft | 143 kts | 25° |
| 2026-05-04 20:07 | 67.93481 | 15.40466 | 6899 ft | 143 kts | 25° |
| 2026-05-04 20:07 | 67.94302 | 15.41968 | 6898 ft | 143 kts | 25° |
| 2026-05-04 20:07 | 67.95119 | 15.43470 | 6897 ft | 143 kts | 25° |
| 2026-05-04 20:07 | 67.95936 | 15.44974 | 6898 ft | 143 kts | 25° |
| 2026-05-04 20:08 | 67.96753 | 15.46479 | 6896 ft | 143 kts | 25° |
| 2026-05-04 20:08 | 67.97573 | 15.47987 | 6895 ft | 143 kts | 25° |
| 2026-05-04 20:08 | 67.98388 | 15.49491 | 6895 ft | 143 kts | 25° |
| 2026-05-04 20:08 | 67.99205 | 15.50997 | 6895 ft | 143 kts | 25° |
| 2026-05-04 20:09 | 68.00019 | 15.52500 | 6889 ft | 143 kts | 25° |
| 2026-05-04 20:09 | 68.00835 | 15.54010 | 6891 ft | 143 kts | 25° |
| 2026-05-04 20:09 | 68.01654 | 15.55525 | 6895 ft | 144 kts | 25° |
| 2026-05-04 20:09 | 68.02481 | 15.57054 | 6900 ft | 145 kts | 25° |
| 2026-05-04 20:10 | 68.03311 | 15.58593 | 6894 ft | 145 kts | 25° |
| 2026-05-04 20:10 | 68.04141 | 15.60133 | 6890 ft | 145 kts | 25° |
| 2026-05-04 20:10 | 68.04968 | 15.61666 | 6887 ft | 144 kts | 25° |
| 2026-05-04 20:10 | 68.05789 | 15.63192 | 6886 ft | 144 kts | 25° |
| 2026-05-04 20:11 | 68.06606 | 15.64715 | 6886 ft | 143 kts | 25° |
| 2026-05-04 20:11 | 68.07426 | 15.66244 | 6888 ft | 144 kts | 25° |
| 2026-05-04 20:11 | 68.08237 | 15.67756 | 6888 ft | 144 kts | 25° |
| 2026-05-04 20:11 | 68.09067 | 15.69303 | 6887 ft | 143 kts | 25° |
| 2026-05-04 20:12 | 68.09885 | 15.70831 | 6888 ft | 143 kts | 25° |
| 2026-05-04 20:12 | 68.10703 | 15.72359 | 6888 ft | 143 kts | 25° |
| 2026-05-04 20:12 | 68.11510 | 15.73868 | 6885 ft | 143 kts | 26° |
| 2026-05-04 20:12 | 68.12340 | 15.75419 | 6883 ft | 144 kts | 26° |
| 2026-05-04 20:13 | 68.13151 | 15.76938 | 6882 ft | 144 kts | 26° |
| 2026-05-04 20:13 | 68.13970 | 15.78475 | 6881 ft | 144 kts | 27° |
| 2026-05-04 20:13 | 68.14793 | 15.80020 | 6882 ft | 145 kts | 26° |
| 2026-05-04 20:13 | 68.15619 | 15.81568 | 6882 ft | 145 kts | 27° |
| 2026-05-04 20:14 | 68.16443 | 15.83116 | 6882 ft | 145 kts | 27° |
| 2026-05-04 20:14 | 68.17269 | 15.84671 | 6879 ft | 145 kts | 26° |
| 2026-05-04 20:14 | 68.18093 | 15.86224 | 6881 ft | 145 kts | 27° |
| 2026-05-04 20:14 | 68.18924 | 15.87791 | 6886 ft | 147 kts | 27° |
| 2026-05-04 20:15 | 68.19759 | 15.89365 | 6883 ft | 147 kts | 27° |
| 2026-05-04 20:15 | 68.20593 | 15.90940 | 6881 ft | 146 kts | 27° |
| 2026-05-04 20:15 | 68.21426 | 15.92514 | 6879 ft | 146 kts | 27° |
| 2026-05-04 20:15 | 68.22256 | 15.94082 | 6877 ft | 145 kts | 27° |
| 2026-05-04 20:16 | 68.23082 | 15.95649 | 6873 ft | 145 kts | 27° |
| 2026-05-04 20:16 | 68.23911 | 15.97219 | 6875 ft | 146 kts | 27° |
| 2026-05-04 20:16 | 68.24740 | 15.98792 | 6875 ft | 146 kts | 27° |
| 2026-05-04 20:16 | 68.25570 | 16.00369 | 6877 ft | 146 kts | 27° |
| 2026-05-04 20:17 | 68.26401 | 16.01950 | 6874 ft | 146 kts | 27° |
| 2026-05-04 20:17 | 68.27231 | 16.03530 | 6872 ft | 146 kts | 27° |
| 2026-05-04 20:17 | 68.28060 | 16.05109 | 6871 ft | 146 kts | 27° |
| 2026-05-04 20:17 | 68.28889 | 16.06692 | 6870 ft | 146 kts | 27° |
| 2026-05-04 20:18 | 68.29719 | 16.08275 | 6872 ft | 146 kts | 27° |
| 2026-05-04 20:18 | 68.30548 | 16.09857 | 6871 ft | 146 kts | 27° |
| 2026-05-04 20:18 | 68.31377 | 16.11440 | 6870 ft | 146 kts | 27° |
| 2026-05-04 20:18 | 68.32205 | 16.13023 | 6869 ft | 146 kts | 27° |
| 2026-05-04 20:19 | 68.33023 | 16.14589 | 6868 ft | 146 kts | 27° |
| 2026-05-04 20:19 | 68.33850 | 16.16171 | 6866 ft | 145 kts | 27° |
| 2026-05-04 20:19 | 68.34674 | 16.17754 | 6862 ft | 145 kts | 27° |
| 2026-05-04 20:19 | 68.35498 | 16.19337 | 6863 ft | 145 kts | 27° |
| 2026-05-04 20:20 | 68.36323 | 16.20922 | 6862 ft | 145 kts | 27° |
| 2026-05-04 20:20 | 68.37150 | 16.22511 | 6862 ft | 146 kts | 27° |
| 2026-05-04 20:20 | 68.37976 | 16.24099 | 6861 ft | 146 kts | 27° |
| 2026-05-04 20:20 | 68.38800 | 16.25688 | 6862 ft | 146 kts | 27° |
| 2026-05-04 20:21 | 68.39627 | 16.27283 | 6861 ft | 146 kts | 27° |
| 2026-05-04 20:21 | 68.40456 | 16.28881 | 6865 ft | 146 kts | 28° |
| 2026-05-04 20:21 | 68.42112 | 16.32079 | 6861 ft | 146 kts | 29° |
| 2026-05-04 20:22 | 68.42938 | 16.33677 | 6862 ft | 146 kts | 29° |
| 2026-05-04 20:22 | 68.43485 | 16.34739 | 6860 ft | 146 kts | 28° |
| 2026-05-04 20:22 | 68.44315 | 16.36345 | 6859 ft | 146 kts | 28° |
| 2026-05-04 20:22 | 68.45140 | 16.37946 | 6860 ft | 146 kts | 28° |
| 2026-05-04 20:23 | 68.45967 | 16.39554 | 6857 ft | 146 kts | 29° |
| 2026-05-04 20:23 | 68.46793 | 16.41162 | 6857 ft | 146 kts | 29° |
| 2026-05-04 20:23 | 68.47619 | 16.42770 | 6857 ft | 146 kts | 28° |
| 2026-05-04 20:23 | 68.48446 | 16.44378 | 6858 ft | 146 kts | 29° |
| 2026-05-04 20:24 | 68.49273 | 16.45990 | 6859 ft | 146 kts | 28° |
| 2026-05-04 20:24 | 68.50099 | 16.47600 | 6860 ft | 146 kts | 28° |
| 2026-05-04 20:24 | 68.50927 | 16.49217 | 6862 ft | 147 kts | 29° |
| 2026-05-04 20:24 | 68.51757 | 16.50839 | 6859 ft | 147 kts | 29° |
| 2026-05-04 20:25 | 68.52585 | 16.52460 | 6856 ft | 146 kts | 29° |
| 2026-05-04 20:25 | 68.53413 | 16.54081 | 6860 ft | 147 kts | 28° |
| 2026-05-04 20:25 | 68.54243 | 16.55707 | 6863 ft | 147 kts | 30° |
| 2026-05-04 20:25 | 68.55074 | 16.57337 | 6862 ft | 147 kts | 29° |
| 2026-05-04 20:26 | 68.55904 | 16.58968 | 6862 ft | 147 kts | 28° |
| 2026-05-04 20:26 | 68.56737 | 16.60603 | 6862 ft | 147 kts | 28° |
| 2026-05-04 20:26 | 68.57568 | 16.62238 | 6862 ft | 147 kts | 29° |
| 2026-05-04 20:26 | 68.58401 | 16.63878 | 6861 ft | 147 kts | 30° |
| 2026-05-04 20:27 | 68.59231 | 16.65514 | 6861 ft | 147 kts | 29° |
| 2026-05-04 20:27 | 68.60060 | 16.67151 | 6859 ft | 147 kts | 28° |
| 2026-05-04 20:27 | 68.60891 | 16.68788 | 6858 ft | 147 kts | 29° |
| 2026-05-04 20:27 | 68.61716 | 16.70417 | 6859 ft | 146 kts | 30° |
| 2026-05-04 20:28 | 68.62541 | 16.72050 | 6859 ft | 146 kts | 30° |
| 2026-05-04 20:28 | 68.63369 | 16.73689 | 6863 ft | 147 kts | 29° |
| 2026-05-04 20:28 | 68.64200 | 16.75336 | 6865 ft | 148 kts | 28° |
| 2026-05-04 20:28 | 68.65032 | 16.76987 | 6865 ft | 148 kts | 29° |
| 2026-05-04 20:29 | 68.65863 | 16.78640 | 6865 ft | 148 kts | 30° |
| 2026-05-04 20:29 | 68.66695 | 16.80291 | 6863 ft | 147 kts | 29° |
| 2026-05-04 20:29 | 68.67524 | 16.81940 | 6861 ft | 147 kts | 28° |
| 2026-05-04 20:29 | 68.68353 | 16.83590 | 6862 ft | 147 kts | 28° |
| 2026-05-04 20:30 | 68.69180 | 16.85239 | 6861 ft | 147 kts | 30° |
| 2026-05-04 20:30 | 68.70001 | 16.86878 | 6860 ft | 145 kts | 31° |
| 2026-05-04 20:30 | 68.70814 | 16.88503 | 6861 ft | 144 kts | 30° |
| 2026-05-04 20:30 | 68.71626 | 16.90130 | 6861 ft | 144 kts | 30° |
| 2026-05-04 20:31 | 68.72437 | 16.91752 | 6861 ft | 144 kts | 31° |
| 2026-05-04 20:31 | 68.73242 | 16.93367 | 6861 ft | 142 kts | 30° |
| 2026-05-04 20:31 | 68.74037 | 16.94963 | 6857 ft | 141 kts | 30° |
| 2026-05-04 20:31 | 68.74819 | 16.96535 | 6858 ft | 141 kts | 30° |
| 2026-05-04 20:32 | 68.75622 | 16.98145 | 6860 ft | 141 kts | 29° |
| 2026-05-04 20:32 | 68.76415 | 16.99737 | 6861 ft | 141 kts | 29° |
| 2026-05-04 20:32 | 68.77208 | 17.01331 | 6863 ft | 141 kts | 30° |
| 2026-05-04 20:32 | 68.77995 | 17.02912 | 6862 ft | 141 kts | 30° |
| 2026-05-04 20:33 | 68.78800 | 17.04532 | 6858 ft | 141 kts | 29° |
| 2026-05-04 20:33 | 68.79587 | 17.06113 | 6863 ft | 142 kts | 30° |
| 2026-05-04 20:33 | 68.80396 | 17.07743 | 6865 ft | 142 kts | 30° |
| 2026-05-04 20:33 | 68.81181 | 17.09331 | 6863 ft | 142 kts | 30° |
| 2026-05-04 20:34 | 68.81975 | 17.10937 | 6864 ft | 141 kts | 30° |
| 2026-05-04 20:34 | 68.82769 | 17.12545 | 6863 ft | 141 kts | 30° |
| 2026-05-04 20:34 | 68.83559 | 17.14152 | 6863 ft | 141 kts | 30° |
| 2026-05-04 20:34 | 68.84349 | 17.15756 | 6863 ft | 141 kts | 30° |
| 2026-05-04 20:35 | 68.85144 | 17.17368 | 6863 ft | 142 kts | 30° |
| 2026-05-04 20:35 | 68.85937 | 17.18978 | 6863 ft | 142 kts | 30° |
| 2026-05-04 20:35 | 68.86734 | 17.20596 | 6865 ft | 142 kts | 30° |
| 2026-05-04 20:35 | 68.87534 | 17.22224 | 6866 ft | 143 kts | 30° |
| 2026-05-04 20:36 | 68.88334 | 17.23854 | 6863 ft | 142 kts | 30° |
| 2026-05-04 20:36 | 68.89130 | 17.25476 | 6861 ft | 142 kts | 30° |
| 2026-05-04 20:36 | 68.89923 | 17.27095 | 6862 ft | 142 kts | 30° |
| 2026-05-04 20:36 | 68.90718 | 17.28721 | 6863 ft | 142 kts | 30° |
| 2026-05-04 20:37 | 68.91518 | 17.30355 | 6873 ft | 144 kts | 30° |
| 2026-05-04 20:37 | 68.92328 | 17.32008 | 6879 ft | 145 kts | 30° |
| 2026-05-04 20:37 | 68.93139 | 17.33670 | 6873 ft | 144 kts | 30° |
| 2026-05-04 20:37 | 68.93944 | 17.35322 | 6868 ft | 144 kts | 30° |
| 2026-05-04 20:38 | 68.94748 | 17.36972 | 6866 ft | 143 kts | 30° |
| 2026-05-04 20:38 | 68.95549 | 17.38617 | 6865 ft | 143 kts | 30° |
| 2026-05-04 20:38 | 68.96345 | 17.40253 | 6864 ft | 142 kts | 30° |
| 2026-05-04 20:38 | 68.97140 | 17.41891 | 6865 ft | 142 kts | 30° |
| 2026-05-04 20:39 | 68.97935 | 17.43526 | 6868 ft | 142 kts | 32° |
| 2026-05-04 20:39 | 68.98725 | 17.45156 | 6867 ft | 141 kts | 32° |
| 2026-05-04 20:39 | 68.99515 | 17.46785 | 6866 ft | 141 kts | 32° |
| 2026-05-04 20:39 | 69.00301 | 17.48409 | 6865 ft | 141 kts | 32° |
| 2026-05-04 20:40 | 69.01084 | 17.50030 | 6861 ft | 140 kts | 31° |
| 2026-05-04 20:40 | 69.01867 | 17.51651 | 6862 ft | 140 kts | 32° |
| 2026-05-04 20:40 | 69.02650 | 17.53273 | 6863 ft | 140 kts | 32° |
| 2026-05-04 20:40 | 69.03434 | 17.54897 | 6863 ft | 140 kts | 32° |
| 2026-05-04 20:41 | 69.04216 | 17.56520 | 6866 ft | 140 kts | 32° |
| 2026-05-04 20:41 | 69.04999 | 17.58146 | 6865 ft | 140 kts | 32° |
| 2026-05-04 20:41 | 69.05773 | 17.59755 | 6865 ft | 140 kts | 32° |
| 2026-05-04 20:41 | 69.06558 | 17.61386 | 6864 ft | 140 kts | 32° |
| 2026-05-04 20:42 | 69.07342 | 17.63016 | 6863 ft | 140 kts | 31° |
| 2026-05-04 20:42 | 69.08122 | 17.64642 | 6864 ft | 140 kts | 32° |
| 2026-05-04 20:42 | 69.08902 | 17.66273 | 6864 ft | 140 kts | 32° |
| 2026-05-04 20:42 | 69.09683 | 17.67903 | 6864 ft | 140 kts | 32° |
| 2026-05-04 20:43 | 69.10463 | 17.69534 | 6861 ft | 140 kts | 32° |
| 2026-05-04 20:43 | 69.11244 | 17.71164 | 6864 ft | 140 kts | 32° |
| 2026-05-04 20:43 | 69.12025 | 17.72798 | 6867 ft | 140 kts | 32° |
| 2026-05-04 20:43 | 69.12808 | 17.74442 | 6866 ft | 141 kts | 32° |
| 2026-05-04 20:44 | 69.13592 | 17.76088 | 6868 ft | 141 kts | 32° |
| 2026-05-04 20:44 | 69.14377 | 17.77733 | 6867 ft | 141 kts | 32° |
| 2026-05-04 20:44 | 69.15162 | 17.79382 | 6865 ft | 141 kts | 32° |
| 2026-05-04 20:44 | 69.15946 | 17.81029 | 6864 ft | 140 kts | 32° |
| 2026-05-04 20:45 | 69.16726 | 17.82671 | 6863 ft | 140 kts | 32° |
| 2026-05-04 20:45 | 69.17502 | 17.84311 | 6861 ft | 140 kts | 32° |
| 2026-05-04 20:45 | 69.18279 | 17.85951 | 6864 ft | 140 kts | 32° |
| 2026-05-04 20:45 | 69.19049 | 17.87575 | 6866 ft | 140 kts | 32° |
| 2026-05-04 20:46 | 69.19832 | 17.89227 | 6866 ft | 141 kts | 32° |
| 2026-05-04 20:46 | 69.20618 | 17.90886 | 6869 ft | 141 kts | 32° |
| 2026-05-04 20:46 | 69.21401 | 17.92540 | 6861 ft | 140 kts | 32° |
| 2026-05-04 20:46 | 69.22166 | 17.94154 | 6831 ft | 135 kts | 31° |
| 2026-05-04 20:47 | 69.22917 | 17.95735 | 6764 ft | 134 kts | 32° |
| 2026-05-04 20:47 | 69.23664 | 17.97316 | 6683 ft | 134 kts | 32° |
| 2026-05-04 20:47 | 69.24409 | 17.98896 | 6600 ft | 134 kts | 32° |
| 2026-05-04 20:47 | 69.25157 | 18.00483 | 6520 ft | 134 kts | 32° |
| 2026-05-04 20:48 | 69.25906 | 18.02073 | 6437 ft | 135 kts | 32° |
| 2026-05-04 20:48 | 69.26653 | 18.03663 | 6357 ft | 135 kts | 33° |
| 2026-05-04 20:48 | 69.27399 | 18.05254 | 6276 ft | 134 kts | 33° |
| 2026-05-04 20:48 | 69.28144 | 18.06846 | 6199 ft | 134 kts | 33° |
| 2026-05-04 20:49 | 69.28887 | 18.08432 | 6112 ft | 133 kts | 33° |
| 2026-05-04 20:49 | 69.29623 | 18.10007 | 6022 ft | 133 kts | 33° |
| 2026-05-04 20:49 | 69.30360 | 18.11585 | 5955 ft | 133 kts | 33° |
| 2026-05-04 20:49 | 69.31098 | 18.13169 | 5875 ft | 133 kts | 33° |
| 2026-05-04 20:50 | 69.31841 | 18.14765 | 5810 ft | 135 kts | 33° |
| 2026-05-04 20:50 | 69.32590 | 18.16373 | 5731 ft | 135 kts | 33° |
| 2026-05-04 20:50 | 69.33338 | 18.17981 | 5650 ft | 135 kts | 33° |
| 2026-05-04 20:50 | 69.34085 | 18.19590 | 5568 ft | 135 kts | 33° |
| 2026-05-04 20:51 | 69.34831 | 18.21194 | 5488 ft | 135 kts | 33° |
| 2026-05-04 20:51 | 69.35580 | 18.22809 | 5412 ft | 135 kts | 33° |
| 2026-05-04 20:51 | 69.36319 | 18.24404 | 5332 ft | 135 kts | 33° |
| 2026-05-04 20:51 | 69.37069 | 18.26022 | 5255 ft | 135 kts | 33° |
| 2026-05-04 20:52 | 69.37760 | 18.27840 | 5172 ft | 136 kts | 40° |
| 2026-05-04 20:52 | 69.38427 | 18.29738 | 5104 ft | 136 kts | 41° |
| 2026-05-04 20:52 | 69.39094 | 18.31645 | 5035 ft | 136 kts | 41° |
| 2026-05-04 20:52 | 69.39758 | 18.33547 | 4981 ft | 135 kts | 41° |
| 2026-05-04 20:53 | 69.40415 | 18.35432 | 4957 ft | 134 kts | 41° |
| 2026-05-04 20:53 | 69.41066 | 18.37303 | 4944 ft | 132 kts | 41° |
| 2026-05-04 20:53 | 69.41709 | 18.39149 | 4939 ft | 131 kts | 40° |
| 2026-05-04 20:53 | 69.42357 | 18.41009 | 4935 ft | 130 kts | 40° |
| 2026-05-04 20:54 | 69.42983 | 18.42808 | 4934 ft | 129 kts | 40° |
| 2026-05-04 20:54 | 69.43615 | 18.44619 | 4934 ft | 129 kts | 40° |
| 2026-05-04 20:54 | 69.44244 | 18.46425 | 4933 ft | 128 kts | 40° |
| 2026-05-04 20:54 | 69.44875 | 18.48223 | 4935 ft | 128 kts | 40° |
| 2026-05-04 20:55 | 69.45506 | 18.50008 | 4933 ft | 128 kts | 40° |
| 2026-05-04 20:55 | 69.46132 | 18.51783 | 4932 ft | 127 kts | 40° |
| 2026-05-04 20:55 | 69.46758 | 18.53555 | 4930 ft | 126 kts | 39° |
| 2026-05-04 20:55 | 69.47384 | 18.55330 | 4933 ft | 127 kts | 40° |
| 2026-05-04 20:56 | 69.48010 | 18.57102 | 4934 ft | 127 kts | 40° |
| 2026-05-04 20:56 | 69.48642 | 18.58897 | 4946 ft | 129 kts | 39° |
| 2026-05-04 20:56 | 69.49283 | 18.60710 | 4944 ft | 129 kts | 40° |
| 2026-05-04 20:56 | 69.49919 | 18.62518 | 4941 ft | 129 kts | 40° |
| 2026-05-04 20:57 | 69.50553 | 18.64326 | 4943 ft | 130 kts | 40° |
| 2026-05-04 20:57 | 69.51191 | 18.66138 | 4939 ft | 129 kts | 40° |
| 2026-05-04 20:57 | 69.51821 | 18.67930 | 4935 ft | 127 kts | 40° |
| 2026-05-04 20:57 | 69.52440 | 18.69688 | 4901 ft | 124 kts | 39° |
| 2026-05-04 20:58 | 69.53045 | 18.71400 | 4798 ft | 122 kts | 39° |
| 2026-05-04 20:58 | 69.53644 | 18.73096 | 4689 ft | 120 kts | 39° |
| 2026-05-04 20:58 | 69.54229 | 18.74753 | 4555 ft | 117 kts | 41° |
| 2026-05-04 20:58 | 69.54800 | 18.76375 | 4380 ft | 115 kts | 42° |
| 2026-05-04 20:59 | 69.55366 | 18.77984 | 4195 ft | 115 kts | 43° |
| 2026-05-04 20:59 | 69.55928 | 18.79589 | 4011 ft | 116 kts | 45° |
| 2026-05-04 20:59 | 69.56504 | 18.81260 | 3828 ft | 117 kts | 42° |
| 2026-05-04 20:59 | 69.57073 | 18.82874 | 3595 ft | 117 kts | 39° |
| 2026-05-04 21:00 | 69.57677 | 18.84295 | 3284 ft | 109 kts | 27° |
| 2026-05-04 21:00 | 69.58329 | 18.85233 | 2950 ft | 102 kts | 19° |
| 2026-05-04 21:00 | 69.58997 | 18.85900 | 2667 ft | 98 kts | 13° |
| 2026-05-04 21:00 | 69.59666 | 18.86373 | 2403 ft | 100 kts | 9° |
| 2026-05-04 21:01 | 69.60346 | 18.86801 | 2183 ft | 99 kts | 11° |
| 2026-05-04 21:01 | 69.61008 | 18.87242 | 1958 ft | 101 kts | 7° |
| 2026-05-04 21:01 | 69.61698 | 18.87640 | 1707 ft | 101 kts | 8° |
| 2026-05-04 21:01 | 69.62385 | 18.88012 | 1493 ft | 102 kts | 12° |
| 2026-05-04 21:02 | 69.63084 | 18.88478 | 1264 ft | 104 kts | 13° |
| 2026-05-04 21:02 | 69.63794 | 18.88913 | 1017 ft | 103 kts | 12° |
| 2026-05-04 21:02 | 69.64480 | 18.89356 | 835 ft | 99 kts | 15° |
| 2026-05-04 21:02 | 69.65110 | 18.89802 | 634 ft | 86 kts | 12° |
| 2026-05-04 21:03 | 69.65662 | 18.90135 | 473 ft | 78 kts | 12° |
| 2026-05-04 21:03 | 69.66186 | 18.90480 | 392 ft | 78 kts | 13° |
| 2026-05-04 21:03 | 69.66723 | 18.90821 | 244 ft | 77 kts | 14° |
| 2026-05-04 21:03 | 69.67190 | 18.91135 | 119 ft | 60 kts | 18° |
| 2026-05-04 21:04 | 69.67506 | 18.91342 | 64 ft | 33 kts | 20° |
| 2026-05-04 21:04 | 69.67630 | 18.91430 | 56 ft | 7 kts | 21° |
| 2026-05-04 21:04 | 69.67657 | 18.91445 | 36 ft | 2 kts | 20° |
| 2026-05-04 21:04 | 69.67680 | 18.91455 | 31 ft | 7 kts | 12° |
| 2026-05-04 21:05 | 69.67728 | 18.91415 | 31 ft | 7 kts | 299° |
| 2026-05-04 21:05 | 69.67741 | 18.91285 | 31 ft | 6 kts | 285° |
| 2026-05-04 21:05 | 69.67758 | 18.91164 | 31 ft | 8 kts | 317° |
| 2026-05-04 21:05 | 69.67819 | 18.91163 | 30 ft | 9 kts | 12° |
| 2026-05-04 21:06 | 69.67883 | 18.91202 | 30 ft | 10 kts | 12° |
| 2026-05-04 21:06 | 69.67949 | 18.91245 | 29 ft | 10 kts | 13° |
| 2026-05-04 21:06 | 69.68009 | 18.91285 | 29 ft | 8 kts | 12° |
| 2026-05-04 21:06 | 69.68062 | 18.91320 | 29 ft | 8 kts | 14° |
| 2026-05-04 21:07 | 69.68117 | 18.91357 | 28 ft | 8 kts | 11° |
| 2026-05-04 21:07 | 69.68169 | 18.91390 | 28 ft | 3 kts | 13° |
| 2026-05-04 21:07 | 69.68191 | 18.91414 | 28 ft | 4 kts | 23° |
| 2026-05-04 21:07 | 69.68175 | 18.91386 | 28 ft | 9 kts | 188° |
| 2026-05-04 21:08 | 69.68112 | 18.91339 | 28 ft | 10 kts | 208° |
| 2026-05-04 21:08 | 69.68111 | 18.91132 | 28 ft | 11 kts | 284° |
| 2026-05-04 21:08 | 69.68128 | 18.91011 | 28 ft | 6 kts | 359° |
| 2026-05-04 21:08 | 69.68154 | 18.91032 | 28 ft | 4 kts | 70° |
| 2026-05-04 21:09 | 69.68152 | 18.91045 | 28 ft | 0 kts | 113° |